createdAt,value
2022-10-12T00:00:33.369Z,98766.69
2022-10-12T00:03:01.051Z,98769.94
2022-10-12T00:05:28.497Z,98770.16
2022-10-12T00:07:56.021Z,98766.69
2022-10-12T00:10:23.499Z,98769.50
2022-10-12T00:12:50.988Z,98771.97
2022-10-12T00:15:18.561Z,98761.84
2022-10-12T00:17:46.049Z,98770.78
2022-10-12T00:20:13.652Z,98777.75
2022-10-12T00:22:41.148Z,98772.59
2022-10-12T00:25:08.618Z,98769.50
2022-10-12T00:27:36.318Z,98768.69
2022-10-12T00:30:04.464Z,98766.84
2022-10-12T00:32:31.959Z,98768.47
2022-10-12T00:34:59.391Z,98764.66
2022-10-12T00:37:26.932Z,98763.66
2022-10-12T00:39:54.377Z,98765.94
2022-10-12T00:42:21.961Z,98765.09
2022-10-12T00:44:51.152Z,98768.25
2022-10-12T00:47:38.787Z,98766.56
2022-10-12T00:50:07.391Z,98762.28
2022-10-12T00:52:42.507Z,98764.28
2022-10-12T00:55:15.007Z,98765.47
2022-10-12T00:57:46.955Z,98761.38
2022-10-12T01:00:15.989Z,98751.75
2022-10-12T01:02:44.940Z,98756.44
2022-10-12T01:05:13.499Z,98759.25
2022-10-12T01:07:41.164Z,98760.06
2022-10-12T01:10:09.093Z,98755.97
2022-10-12T01:12:37.481Z,98755.34
2022-10-12T01:15:05.917Z,98756.31
2022-10-12T01:17:42.678Z,98754.53
2022-10-12T01:20:44.422Z,98747.56
2022-10-12T01:23:17.806Z,98749.22
2022-10-12T01:26:22.826Z,98751.88
2022-10-12T01:29:23.862Z,98746.91
2022-10-12T01:32:05.093Z,98745.91
2022-10-12T01:34:38.670Z,98745.91
2022-10-12T01:37:48.671Z,98749.53
2022-10-12T01:40:24.450Z,98747.47
2022-10-12T01:42:54.281Z,98753.03
2022-10-12T01:45:21.790Z,98758.38
2022-10-12T01:47:55.360Z,98756.28
2022-10-12T01:50:29.788Z,98750.50
2022-10-12T01:53:21.451Z,98750.03
2022-10-12T01:56:05.181Z,98745.09
2022-10-12T01:58:38.829Z,98741.84
2022-10-12T02:01:11.883Z,98740.63
2022-10-12T02:03:47.336Z,98735.63
2022-10-12T02:06:19.798Z,98738.63
2022-10-12T02:09:27.731Z,98744.47
2022-10-12T02:12:00.260Z,98740.38
2022-10-12T02:14:37.776Z,98738.34
2022-10-12T02:17:09.770Z,98737.06
2022-10-12T02:19:41.909Z,98741.25
2022-10-12T02:22:10.979Z,98738.13
2022-10-12T02:24:41.401Z,98752.38
2022-10-12T02:27:12.412Z,98739.63
2022-10-12T02:29:42.134Z,98748.94
2022-10-12T02:32:19.536Z,98747.63
2022-10-12T02:34:55.019Z,98749.34
2022-10-12T02:37:25.270Z,98746.41
2022-10-12T02:40:04.351Z,98745.09
2022-10-12T02:43:05.357Z,98739.16
2022-10-12T02:45:25.745Z,98740.34
2022-10-12T02:47:55.171Z,98740.34
2022-10-12T02:50:25.190Z,98739.69
2022-10-12T02:52:53.230Z,98738.06
2022-10-12T02:55:20.800Z,98735.41
2022-10-12T02:57:48.319Z,98741.53
2022-10-12T03:00:16.420Z,98745.81
2022-10-12T03:02:43.879Z,98741.19
2022-10-12T03:05:11.365Z,98737.53
2022-10-12T03:07:39.102Z,98739.50
2022-10-12T03:10:07.270Z,98736.69
2022-10-12T03:12:34.829Z,98747.09
2022-10-12T03:15:02.488Z,98744.44
2022-10-12T03:17:29.958Z,98742.81
2022-10-12T03:19:57.400Z,98743.81
2022-10-12T03:22:24.916Z,98737.72
2022-10-12T03:24:52.275Z,98736.88
2022-10-12T03:27:19.950Z,98735.56
2022-10-12T03:29:47.407Z,98730.28
2022-10-12T03:32:16.169Z,98734.75
2022-10-12T03:34:43.730Z,98726.00
2022-10-12T03:37:11.235Z,98728.00
2022-10-12T03:39:38.763Z,98727.16
2022-10-12T03:42:06.369Z,98724.69
2022-10-12T03:44:33.775Z,98726.72
2022-10-12T03:47:01.298Z,98728.34
2022-10-12T03:49:28.868Z,98724.88
2022-10-12T03:51:56.340Z,98725.03
2022-10-12T03:54:23.830Z,98727.06
2022-10-12T03:56:51.329Z,98728.22
2022-10-12T03:59:18.834Z,98728.88
2022-10-12T04:01:46.302Z,98728.88
2022-10-12T04:04:14.030Z,98732.50
2022-10-12T04:06:41.727Z,98732.69
2022-10-12T04:09:09.209Z,98725.56
2022-10-12T04:11:36.768Z,98734.34
2022-10-12T04:14:04.154Z,98731.19
2022-10-12T04:16:31.876Z,98734.09
2022-10-12T04:18:59.259Z,98731.56
2022-10-12T04:21:31.008Z,98733.50
2022-10-12T04:23:58.652Z,98731.34
2022-10-12T04:26:26.128Z,98731.97
2022-10-12T04:28:53.683Z,98728.97
2022-10-12T04:31:21.354Z,98727.81
2022-10-12T04:33:48.846Z,98728.63
2022-10-12T04:36:16.319Z,98722.97
2022-10-12T04:38:43.878Z,98717.53
2022-10-12T04:41:11.354Z,98718.34
2022-10-12T04:43:38.739Z,98718.34
2022-10-12T04:46:06.135Z,98724.81
2022-10-12T04:48:33.708Z,98717.06
2022-10-12T04:51:01.093Z,98716.06
2022-10-12T04:53:29.408Z,98720.16
2022-10-12T04:55:56.827Z,98719.00
2022-10-12T04:58:24.355Z,98716.94
2022-10-12T05:00:51.828Z,98717.88
2022-10-12T05:03:19.317Z,98718.22
2022-10-12T05:05:47.053Z,98725.09
2022-10-12T05:08:14.641Z,98726.59
2022-10-12T05:10:42.077Z,98725.28
2022-10-12T05:13:09.958Z,98729.94
2022-10-12T05:15:37.287Z,98729.09
2022-10-12T05:18:05.025Z,98728.94
2022-10-12T05:20:32.547Z,98729.59
2022-10-12T05:23:00.272Z,98724.44
2022-10-12T05:25:30.787Z,98727.75
2022-10-12T05:27:58.387Z,98722.78
2022-10-12T05:30:25.877Z,98728.47
2022-10-12T05:32:53.358Z,98725.94
2022-10-12T05:35:20.965Z,98725.59
2022-10-12T05:37:48.357Z,98718.47
2022-10-12T05:40:16.088Z,98718.69
2022-10-12T05:42:44.720Z,98715.09
2022-10-12T05:45:12.689Z,98723.94
2022-10-12T05:47:41.257Z,98717.28
2022-10-12T05:50:09.176Z,98715.00
2022-10-12T05:52:36.974Z,98714.47
2022-10-12T05:55:05.002Z,98714.06
2022-10-12T05:57:32.516Z,98707.63
2022-10-12T05:59:59.977Z,98718.91
2022-10-12T06:02:27.432Z,98711.38
2022-10-12T06:04:54.842Z,98717.19
2022-10-12T06:07:22.397Z,98717.50
2022-10-12T06:09:49.833Z,98717.00
2022-10-12T06:12:17.563Z,98722.44
2022-10-12T06:14:44.955Z,98714.91
2022-10-12T06:17:12.506Z,98731.84
2022-10-12T06:19:39.947Z,98727.06
2022-10-12T06:22:08.062Z,98724.13
2022-10-12T06:24:35.642Z,98728.91
2022-10-12T06:27:03.306Z,98716.22
2022-10-12T06:29:30.976Z,98720.91
2022-10-12T06:31:58.427Z,98719.88
2022-10-12T06:34:25.870Z,98721.47
2022-10-12T06:36:54.168Z,98726.75
2022-10-12T06:39:25.562Z,98723.28
2022-10-12T06:41:54.604Z,98726.41
2022-10-12T06:44:22.645Z,98721.72
2022-10-12T06:46:50.652Z,98725.50
2022-10-12T06:49:18.375Z,98727.34
2022-10-12T06:51:45.901Z,98724.84
2022-10-12T06:54:13.322Z,98733.88
2022-10-12T06:56:40.811Z,98746.16
2022-10-12T06:59:08.596Z,98753.97
2022-10-12T07:01:36.098Z,98748.06
2022-10-12T07:04:03.562Z,98743.53
2022-10-12T07:06:31.113Z,98753.34
2022-10-12T07:08:58.495Z,98754.66
2022-10-12T07:11:26.026Z,98758.53
2022-10-12T07:13:53.467Z,98751.97
2022-10-12T07:16:21.065Z,98734.78
2022-10-12T07:18:48.554Z,98740.53
2022-10-12T07:21:16.323Z,98734.16
2022-10-12T07:23:46.023Z,98744.56
2022-10-12T07:26:13.856Z,98745.78
2022-10-12T07:28:41.472Z,98739.75
2022-10-12T07:31:09.946Z,98741.78
2022-10-12T07:33:38.797Z,98738.81
2022-10-12T07:36:14.255Z,98737.44
2022-10-12T07:38:46.095Z,98735.84
2022-10-12T07:41:14.661Z,98730.19
2022-10-12T07:43:42.846Z,98735.47
2022-10-12T07:46:11.069Z,98726.31
2022-10-12T07:48:41.213Z,98732.19
2022-10-12T07:51:10.921Z,98729.41
2022-10-12T07:53:39.952Z,98732.50
2022-10-12T07:56:15.080Z,98730.94
2022-10-12T07:58:48.121Z,98721.25
2022-10-12T08:01:16.973Z,98720.13
2022-10-12T08:03:44.568Z,98725.94
2022-10-12T08:06:20.957Z,98723.72
2022-10-12T08:08:49.630Z,98716.72
2022-10-12T08:11:18.581Z,98719.81
2022-10-12T08:13:46.924Z,98724.41
2022-10-12T08:16:18.045Z,98726.91
2022-10-12T08:18:47.379Z,98722.00
2022-10-12T08:21:16.394Z,98721.28
2022-10-12T08:23:45.247Z,98729.88
2022-10-12T08:26:14.734Z,98724.53
2022-10-12T08:28:43.302Z,98725.94
2022-10-12T08:31:14.006Z,98718.44
2022-10-12T08:33:41.685Z,98718.28
2022-10-12T08:36:09.541Z,98718.69
2022-10-12T08:38:39.075Z,98716.50
2022-10-12T08:41:21.400Z,98722.91
2022-10-12T08:44:23.040Z,98726.09
2022-10-12T08:46:58.110Z,98720.06
2022-10-12T08:49:28.336Z,98716.94
2022-10-12T08:51:59.405Z,98717.72
2022-10-12T08:54:36.615Z,98721.41
2022-10-12T08:57:05.342Z,98717.41
2022-10-12T08:59:33.674Z,98713.53
2022-10-12T09:02:34.624Z,98725.44
2022-10-12T09:05:11.340Z,98724.84
2022-10-12T09:07:55.340Z,98718.16
2022-10-12T09:10:45.013Z,98709.81
2022-10-12T09:13:28.694Z,98709.53
2022-10-12T09:16:14.354Z,98710.41
2022-10-12T09:18:46.494Z,98704.16
2022-10-12T09:21:18.063Z,98713.63
2022-10-12T09:23:46.821Z,98715.84
2022-10-12T09:26:14.190Z,98725.22
2022-10-12T09:28:58.807Z,98715.31
2022-10-12T09:31:32.215Z,98714.28
2022-10-12T09:34:02.253Z,98705.84
2022-10-12T09:36:38.445Z,98708.38
2022-10-12T09:39:19.657Z,98712.00
2022-10-12T09:41:49.362Z,98714.88
2022-10-12T09:44:28.874Z,98713.53
2022-10-12T09:47:00.104Z,98707.66
2022-10-12T09:50:04.813Z,98703.06
2022-10-12T09:52:45.830Z,98707.72
2022-10-12T09:55:14.859Z,98708.19
2022-10-12T09:57:51.898Z,98707.88
2022-10-12T10:00:34.894Z,98697.63
2022-10-12T10:03:02.903Z,98699.53
2022-10-12T10:05:36.350Z,98698.78
2022-10-12T10:08:19.842Z,98701.00
2022-10-12T10:10:59.451Z,98700.28
2022-10-12T10:13:29.775Z,98695.94
2022-10-12T10:16:06.612Z,98698.88
2022-10-12T10:18:37.345Z,98694.63
2022-10-12T10:21:07.964Z,98688.66
2022-10-12T10:23:44.119Z,98685.53
2022-10-12T10:28:53.818Z,98679.97
2022-10-12T10:31:25.690Z,98683.41
2022-10-12T10:34:19.889Z,98684.81
2022-10-12T10:36:51.863Z,98687.59
2022-10-12T10:39:24.588Z,98688.16
2022-10-12T10:41:53.581Z,98688.19
2022-10-12T10:44:26.328Z,98682.69
2022-10-12T10:46:57.033Z,98684.66
2022-10-12T10:49:33.703Z,98678.81
2022-10-12T10:52:02.845Z,98669.84
2022-10-12T10:54:38.589Z,98672.84
2022-10-12T10:57:20.543Z,98672.97
2022-10-12T10:59:54.081Z,98669.34
2022-10-12T11:02:28.972Z,98669.47
2022-10-12T11:05:12.858Z,98658.88
2022-10-12T11:07:51.301Z,98666.81
2022-10-12T11:10:24.549Z,98658.44
2022-10-12T11:13:02.807Z,98652.06
2022-10-12T11:19:58.723Z,98651.06
2022-10-12T11:22:33.324Z,98650.84
2022-10-12T11:25:15.148Z,98646.41
2022-10-12T11:27:42.908Z,98643.06
2022-10-12T11:30:22.956Z,98636.53
2022-10-12T11:33:14.444Z,98627.72
2022-10-12T11:35:45.694Z,98630.81
2022-10-12T11:38:27.635Z,98628.91
2022-10-12T11:41:19.168Z,98625.09
2022-10-12T11:44:01.910Z,98628.41
2022-10-12T11:46:47.163Z,98621.31
2022-10-12T11:49:26.283Z,98618.72
2022-10-12T11:51:57.843Z,98621.03
2022-10-12T11:54:31.710Z,98617.56
2022-10-12T11:57:03.436Z,98618.38
2022-10-12T11:59:56.789Z,98612.28
2022-10-12T12:02:38.514Z,98616.59
2022-10-12T12:05:16.802Z,98613.75
2022-10-12T12:07:54.058Z,98608.84
2022-10-12T12:10:44.443Z,98604.44
2022-10-12T12:13:13.143Z,98602.16
2022-10-12T12:15:42.813Z,98590.59
2022-10-12T12:18:18.845Z,98598.59
2022-10-12T12:20:46.979Z,98581.59
2022-10-12T12:23:21.929Z,98586.00
2022-10-12T12:26:10.649Z,98589.72
2022-10-12T12:29:16.834Z,98600.13
2022-10-12T12:31:59.644Z,98587.84
2022-10-12T12:34:28.945Z,98581.94
2022-10-12T12:36:58.541Z,98591.00
2022-10-12T12:39:35.604Z,98580.06
2022-10-12T12:42:05.652Z,98575.38
2022-10-12T12:44:40.810Z,98587.91
2022-10-12T12:50:23.551Z,98574.94
2022-10-12T12:52:52.169Z,98569.72
2022-10-12T12:56:09.776Z,98577.22
2022-10-12T12:59:01.163Z,98577.31
2022-10-12T13:01:55.911Z,98574.63
2022-10-12T13:04:49.503Z,98573.28
2022-10-12T13:07:19.563Z,98574.59
2022-10-12T13:10:05.155Z,98569.94
2022-10-12T13:12:35.324Z,98568.91
2022-10-12T13:15:14.916Z,98563.38
2022-10-12T13:17:45.515Z,98571.16
2022-10-12T13:20:16.322Z,98569.31
2022-10-12T13:22:45.820Z,98572.16
2022-10-12T13:25:29.867Z,98566.44
2022-10-12T13:27:58.656Z,98566.84
2022-10-12T13:30:47.859Z,98568.25
2022-10-12T13:33:32.521Z,98563.91
2022-10-12T13:36:35.831Z,98561.97
2022-10-12T13:39:16.652Z,98557.22
2022-10-12T13:41:45.717Z,98550.41
2022-10-12T13:44:21.895Z,98553.03
2022-10-12T13:46:52.536Z,98550.41
2022-10-12T13:49:23.201Z,98549.75
2022-10-12T13:52:02.949Z,98541.53
2022-10-12T13:54:43.960Z,98539.94
2022-10-12T13:57:48.582Z,98551.19
2022-10-12T14:00:18.798Z,98545.50
2022-10-12T14:03:00.583Z,98539.00
2022-10-12T14:05:31.218Z,98538.19
2022-10-12T14:08:21.953Z,98536.06
2022-10-12T14:10:49.766Z,98524.81
2022-10-12T14:13:26.271Z,98525.56
2022-10-12T14:15:55.555Z,98527.44
2022-10-12T14:18:45.332Z,98536.22
2022-10-12T14:21:33.300Z,98527.06
2022-10-12T14:24:10.040Z,98531.59
2022-10-12T14:26:41.795Z,98520.97
2022-10-12T14:29:44.830Z,98519.56
2022-10-12T14:32:12.245Z,98520.59
2022-10-12T14:34:47.831Z,98523.44
2022-10-12T14:37:15.395Z,98521.44
2022-10-12T14:39:45.099Z,98514.53
2022-10-12T14:42:36.480Z,98524.59
2022-10-12T14:45:23.089Z,98517.03
2022-10-12T14:47:50.660Z,98513.66
2022-10-12T14:50:20.301Z,98511.94
2022-10-12T14:52:53.938Z,98508.53
2022-10-12T14:55:30.502Z,98509.84
2022-10-12T14:57:58.157Z,98509.47
2022-10-12T15:00:29.258Z,98505.66
2022-10-12T15:02:57.890Z,98500.16
2022-10-12T15:05:28.962Z,98502.03
2022-10-12T15:07:56.445Z,98497.06
2022-10-12T15:10:25.022Z,98496.69
2022-10-12T15:12:53.438Z,98497.06
2022-10-12T15:15:33.647Z,98491.22
2022-10-12T15:18:01.324Z,98495.88
2022-10-12T15:20:30.619Z,98495.63
2022-10-12T15:22:59.819Z,98487.47
2022-10-12T15:25:36.219Z,98492.13
2022-10-12T15:28:04.469Z,98493.50
2022-10-12T15:30:33.351Z,98489.75
2022-10-12T15:33:00.890Z,98493.31
2022-10-12T15:35:31.584Z,98490.66
2022-10-12T15:37:59.126Z,98489.81
2022-10-12T15:40:29.196Z,98488.44
2022-10-12T15:42:57.438Z,98493.78
2022-10-12T15:45:28.450Z,98490.00
2022-10-12T15:47:56.035Z,98491.97
2022-10-12T15:50:29.268Z,98491.84
2022-10-12T15:52:57.334Z,98489.25
2022-10-12T15:55:27.718Z,98490.63
2022-10-12T15:57:55.784Z,98485.34
2022-10-12T16:00:26.546Z,98490.56
2022-10-12T16:02:55.428Z,98487.72
2022-10-12T16:05:26.158Z,98490.72
2022-10-12T16:07:54.781Z,98493.63
2022-10-12T16:10:24.851Z,98491.63
2022-10-12T16:12:53.496Z,98486.56
2022-10-12T16:15:26.798Z,98481.16
2022-10-12T16:17:54.236Z,98483.31
2022-10-12T16:20:22.876Z,98480.06
2022-10-12T16:22:50.978Z,98479.50
2022-10-12T16:25:22.368Z,98488.44
2022-10-12T16:27:51.417Z,98486.44
2022-10-12T16:30:19.373Z,98487.69
2022-10-12T16:32:46.897Z,98491.03
2022-10-12T16:35:14.996Z,98489.47
2022-10-12T16:37:42.516Z,98491.38
2022-10-12T16:40:11.519Z,98486.75
2022-10-12T16:42:39.478Z,98483.88
2022-10-12T16:45:07.628Z,98485.75
2022-10-12T16:47:38.882Z,98491.78
2022-10-12T16:50:10.888Z,98489.97
2022-10-12T16:52:38.897Z,98493.50
2022-10-12T16:55:06.965Z,98495.78
2022-10-12T16:57:34.439Z,98494.38
2022-10-12T17:00:02.248Z,98503.25
2022-10-12T17:02:29.806Z,98499.34
2022-10-12T17:04:57.366Z,98494.06
2022-10-12T17:07:25.706Z,98492.50
2022-10-12T17:09:55.940Z,98496.78
2022-10-12T17:12:24.518Z,98499.06
2022-10-12T17:14:52.577Z,98504.22
2022-10-12T17:17:20.601Z,98499.53
2022-10-12T17:19:48.171Z,98502.84
2022-10-12T17:22:16.557Z,98494.44
2022-10-12T17:24:44.325Z,98501.84
2022-10-12T17:27:13.248Z,98499.00
2022-10-12T17:29:41.262Z,98505.16
2022-10-12T17:32:12.390Z,98498.22
2022-10-12T17:34:44.727Z,98505.00
2022-10-12T17:37:15.358Z,98497.44
2022-10-12T17:39:45.243Z,98502.38
2022-10-12T17:42:12.807Z,98502.56
2022-10-12T17:44:40.378Z,98509.53
2022-10-12T17:47:08.039Z,98497.00
2022-10-12T17:49:35.536Z,98497.66
2022-10-12T17:52:02.996Z,98501.16
2022-10-12T17:54:30.369Z,98498.91
2022-10-12T17:56:57.966Z,98494.41
2022-10-12T17:59:26.296Z,98499.13
2022-10-12T18:01:54.689Z,98492.38
2022-10-12T18:04:22.358Z,98489.09
2022-10-12T18:06:49.902Z,98488.72
2022-10-12T18:09:17.404Z,98482.56
2022-10-12T18:11:45.058Z,98487.09
2022-10-12T18:14:13.419Z,98483.41
2022-10-12T18:16:41.236Z,98490.38
2022-10-12T18:19:11.475Z,98488.75
2022-10-12T18:21:39.164Z,98487.31
2022-10-12T18:24:16.126Z,98493.47
2022-10-12T18:26:46.524Z,98488.13
2022-10-12T18:29:16.386Z,98495.91
2022-10-12T18:31:43.841Z,98481.97
2022-10-12T18:34:11.371Z,98486.50
2022-10-12T18:36:40.944Z,98479.72
2022-10-12T18:39:08.792Z,98492.41
2022-10-12T18:41:36.515Z,98487.31
2022-10-12T18:44:04.316Z,98489.16
2022-10-12T18:46:34.406Z,98488.94
2022-10-12T18:49:05.326Z,98485.84
2022-10-12T18:51:35.462Z,98482.78
2022-10-12T18:54:04.497Z,98484.41
2022-10-12T18:56:35.125Z,98487.91
2022-10-12T18:59:02.976Z,98489.97
2022-10-12T19:01:31.475Z,98489.97
2022-10-12T19:04:00.748Z,98486.69
2022-10-12T19:06:30.761Z,98478.94
2022-10-12T19:08:59.341Z,98474.81
2022-10-12T19:11:29.449Z,98480.75
2022-10-12T19:14:00.231Z,98473.56
2022-10-12T19:16:28.656Z,98476.44
2022-10-12T19:18:58.335Z,98478.69
2022-10-12T19:21:26.184Z,98474.19
2022-10-12T19:23:53.742Z,98481.78
2022-10-12T19:26:26.575Z,98472.16
2022-10-12T19:28:55.670Z,98473.78
2022-10-12T19:31:29.905Z,98478.31
2022-10-12T19:34:04.125Z,98476.44
2022-10-12T19:36:32.174Z,98478.31
2022-10-12T19:39:02.483Z,98473.59
2022-10-12T19:41:30.791Z,98466.41
2022-10-12T19:43:59.810Z,98466.59
2022-10-12T19:46:27.374Z,98465.13
2022-10-12T19:48:56.545Z,98460.41
2022-10-12T19:51:26.625Z,98458.56
2022-10-12T19:53:56.217Z,98451.75
2022-10-12T19:56:25.405Z,98451.16
2022-10-12T19:58:58.131Z,98447.63
2022-10-12T20:01:32.370Z,98446.19
2022-10-12T20:04:00.204Z,98451.53
2022-10-12T20:06:29.593Z,98450.50
2022-10-12T20:08:58.793Z,98448.47
2022-10-12T20:11:26.375Z,98442.50
2022-10-12T20:13:55.594Z,98448.44
2022-10-12T20:16:23.604Z,98440.22
2022-10-12T20:18:51.182Z,98439.19
2022-10-12T20:21:22.233Z,98439.78
2022-10-12T20:23:50.773Z,98442.63
2022-10-12T20:26:21.325Z,98440.59
2022-10-12T20:28:49.936Z,98442.63
2022-10-12T20:31:19.435Z,98448.34
2022-10-12T20:33:51.989Z,98443.25
2022-10-12T20:36:25.103Z,98450.81
2022-10-12T20:38:53.354Z,98453.09
2022-10-12T20:41:22.001Z,98452.44
2022-10-12T20:43:49.541Z,98461.69
2022-10-12T20:46:18.474Z,98453.09
2022-10-12T20:48:46.503Z,98452.69
2022-10-12T20:51:42.859Z,98451.44
2022-10-12T20:54:16.074Z,98455.50
2022-10-12T20:56:44.042Z,98448.91
2022-10-12T20:59:11.460Z,98443.44
2022-10-12T21:01:38.950Z,98440.16
2022-10-12T21:04:06.444Z,98446.94
2022-10-12T21:06:34.964Z,98444.25
2022-10-12T21:09:02.428Z,98443.44
2022-10-12T21:11:29.850Z,98443.44
2022-10-12T21:13:57.500Z,98444.69
2022-10-12T21:16:25.093Z,98443.28
2022-10-12T21:18:56.074Z,98440.81
2022-10-12T21:21:24.267Z,98437.72
2022-10-12T21:23:58.993Z,98436.09
2022-10-12T21:26:29.652Z,98432.22
2022-10-12T21:28:59.612Z,98436.72
2022-10-12T21:31:32.409Z,98441.03
2022-10-12T21:34:06.343Z,98432.88
2022-10-12T21:36:36.392Z,98439.00
2022-10-12T21:39:09.513Z,98436.16
2022-10-12T21:41:36.994Z,98435.69
2022-10-12T21:44:04.850Z,98432.88
2022-10-12T21:46:34.383Z,98431.63
2022-10-12T21:49:03.742Z,98427.78
2022-10-12T21:51:31.784Z,98433.75
2022-10-12T21:53:59.433Z,98428.19
2022-10-12T21:56:31.923Z,98426.56
2022-10-12T21:59:01.515Z,98428.81
2022-10-12T22:01:37.493Z,98429.25
2022-10-12T22:04:08.078Z,98428.19
2022-10-12T22:06:35.923Z,98427.16
2022-10-12T22:09:15.272Z,98431.47
2022-10-12T22:11:43.422Z,98430.88
2022-10-12T22:14:15.392Z,98431.69
2022-10-12T22:16:43.654Z,98427.59
2022-10-12T22:19:19.049Z,98427.41
2022-10-12T22:21:48.511Z,98430.28
2022-10-12T22:24:16.220Z,98434.38
2022-10-12T22:26:43.752Z,98427.84
2022-10-12T22:29:11.463Z,98429.84
2022-10-12T22:31:40.899Z,98433.75
2022-10-12T22:34:08.537Z,98427.16
2022-10-12T22:36:36.771Z,98428.81
2022-10-12T22:39:05.461Z,98427.38
2022-10-12T22:41:32.940Z,98423.28
2022-10-12T22:44:00.422Z,98420.81
2022-10-12T22:46:27.944Z,98414.69
2022-10-12T22:48:55.412Z,98415.31
2022-10-12T22:51:31.572Z,98405.63
2022-10-12T22:53:59.958Z,98408.69
2022-10-12T22:56:28.033Z,98404.56
2022-10-12T22:58:57.271Z,98396.78
2022-10-12T23:01:25.885Z,98403.31
2022-10-12T23:03:56.155Z,98400.44
2022-10-12T23:06:24.551Z,98401.69
2022-10-12T23:08:53.021Z,98396.13
2022-10-12T23:11:23.467Z,98399.66
2022-10-12T23:13:51.277Z,98395.09
2022-10-12T23:16:24.340Z,98394.88
2022-10-12T23:19:04.253Z,98398.78
2022-10-12T23:21:34.232Z,98393.25
2022-10-12T23:24:05.047Z,98399.63
2022-10-12T23:26:33.521Z,98395.72
2022-10-12T23:29:01.050Z,98401.06
2022-10-12T23:31:29.941Z,98397.97
2022-10-12T23:34:04.520Z,98403.69
2022-10-12T23:36:34.161Z,98398.38
2022-10-12T23:39:03.147Z,98391.03
2022-10-12T23:41:30.707Z,98396.13
2022-10-12T23:43:58.352Z,98400.66
2022-10-12T23:46:25.798Z,98390.22
2022-10-12T23:48:55.118Z,98390.25
2022-10-12T23:51:22.696Z,98392.69
2022-10-12T23:53:50.272Z,98394.13
2022-10-12T23:56:17.750Z,98389.22
2022-10-12T23:58:45.281Z,98399.06
